sensor_id;sensor_type;location;lat;lon;timestamp;P1;durP1;ratioP1;P2;durP2;ratioP2
52104;SDS011;38103;42.776;23.112;2024-03-06T00:00:12;31.63;;;13.40;;
52104;SDS011;38103;42.776;23.112;2024-03-06T00:02:38;21.15;;;9.77;;
52104;SDS011;38103;42.776;23.112;2024-03-06T00:05:03;20.02;;;8.57;;
52104;SDS011;38103;42.776;23.112;2024-03-06T00:07:29;22.92;;;10.65;;
52104;SDS011;38103;42.776;23.112;2024-03-06T00:09:55;16.88;;;9.38;;
52104;SDS011;38103;42.776;23.112;2024-03-06T00:12:20;22.55;;;9.65;;
52104;SDS011;38103;42.776;23.112;2024-03-06T00:14:46;36.45;;;15.38;;
52104;SDS011;38103;42.776;23.112;2024-03-06T00:17:12;21.80;;;9.23;;
52104;SDS011;38103;42.776;23.112;2024-03-06T00:19:37;21.15;;;9.77;;
52104;SDS011;38103;42.776;23.112;2024-03-06T00:22:02;19.05;;;8.57;;
52104;SDS011;38103;42.776;23.112;2024-03-06T00:24:28;19.60;;;9.93;;
52104;SDS011;38103;42.776;23.112;2024-03-06T00:26:53;32.28;;;13.38;;
52104;SDS011;38103;42.776;23.112;2024-03-06T00:29:19;22.58;;;9.52;;
52104;SDS011;38103;42.776;23.112;2024-03-06T00:31:45;19.15;;;9.07;;
52104;SDS011;38103;42.776;23.112;2024-03-06T00:36:39;22.17;;;8.02;;
52104;SDS011;38103;42.776;23.112;2024-03-06T00:39:04;24.20;;;8.63;;
52104;SDS011;38103;42.776;23.112;2024-03-06T00:41:30;20.10;;;10.48;;
52104;SDS011;38103;42.776;23.112;2024-03-06T00:43:56;22.63;;;9.38;;
52104;SDS011;38103;42.776;23.112;2024-03-06T00:46:21;21.42;;;9.65;;
52104;SDS011;38103;42.776;23.112;2024-03-06T00:48:47;19.98;;;9.10;;
52104;SDS011;38103;42.776;23.112;2024-03-06T00:51:12;19.65;;;8.75;;
52104;SDS011;38103;42.776;23.112;2024-03-06T00:53:37;19.23;;;9.13;;
52104;SDS011;38103;42.776;23.112;2024-03-06T00:56:03;20.83;;;8.65;;
52104;SDS011;38103;42.776;23.112;2024-03-06T00:58:29;15.90;;;8.05;;
52104;SDS011;38103;42.776;23.112;2024-03-06T01:00:54;19.05;;;7.90;;
52104;SDS011;38103;42.776;23.112;2024-03-06T01:03:19;16.75;;;8.18;;
52104;SDS011;38103;42.776;23.112;2024-03-06T01:05:45;19.38;;;9.35;;
52104;SDS011;38103;42.776;23.112;2024-03-06T01:08:11;18.45;;;8.18;;
52104;SDS011;38103;42.776;23.112;2024-03-06T01:10:36;21.23;;;9.80;;
52104;SDS011;38103;42.776;23.112;2024-03-06T01:13:01;15.30;;;8.23;;
52104;SDS011;38103;42.776;23.112;2024-03-06T01:15:27;21.17;;;9.93;;
52104;SDS011;38103;42.776;23.112;2024-03-06T01:17:52;19.73;;;9.63;;
52104;SDS011;38103;42.776;23.112;2024-03-06T01:20:17;19.52;;;9.77;;
52104;SDS011;38103;42.776;23.112;2024-03-06T01:22:43;19.45;;;8.60;;
52104;SDS011;38103;42.776;23.112;2024-03-06T01:25:11;17.63;;;8.43;;
52104;SDS011;38103;42.776;23.112;2024-03-06T01:27:36;20.95;;;8.55;;
52104;SDS011;38103;42.776;23.112;2024-03-06T01:30:01;19.13;;;8.75;;
52104;SDS011;38103;42.776;23.112;2024-03-06T01:32:27;23.45;;;9.48;;
52104;SDS011;38103;42.776;23.112;2024-03-06T01:34:52;17.23;;;7.68;;
52104;SDS011;38103;42.776;23.112;2024-03-06T01:37:18;17.88;;;7.60;;
52104;SDS011;38103;42.776;23.112;2024-03-06T01:39:43;11.93;;;6.82;;
52104;SDS011;38103;42.776;23.112;2024-03-06T01:42:08;14.68;;;6.57;;
52104;SDS011;38103;42.776;23.112;2024-03-06T01:44:34;14.70;;;7.32;;
52104;SDS011;38103;42.776;23.112;2024-03-06T01:47:00;19.52;;;7.70;;
52104;SDS011;38103;42.776;23.112;2024-03-06T01:49:25;22.73;;;8.40;;
52104;SDS011;38103;42.776;23.112;2024-03-06T01:51:52;22.23;;;8.18;;
52104;SDS011;38103;42.776;23.112;2024-03-06T01:54:20;21.88;;;9.73;;
52104;SDS011;38103;42.776;23.112;2024-03-06T01:56:47;16.27;;;8.90;;
52104;SDS011;38103;42.776;23.112;2024-03-06T01:59:13;16.27;;;7.78;;
52104;SDS011;38103;42.776;23.112;2024-03-06T02:01:40;19.23;;;7.63;;
52104;SDS011;38103;42.776;23.112;2024-03-06T02:04:06;17.40;;;8.50;;
52104;SDS011;38103;42.776;23.112;2024-03-06T02:06:35;24.33;;;7.10;;
52104;SDS011;38103;42.776;23.112;2024-03-06T02:09:01;19.73;;;7.97;;
52104;SDS011;38103;42.776;23.112;2024-03-06T02:11:28;18.67;;;9.45;;
52104;SDS011;38103;42.776;23.112;2024-03-06T02:13:54;16.75;;;8.57;;
52104;SDS011;38103;42.776;23.112;2024-03-06T02:16:20;21.40;;;8.07;;
52104;SDS011;38103;42.776;23.112;2024-03-06T02:18:51;24.70;;;9.55;;
52104;SDS011;38103;42.776;23.112;2024-03-06T02:21:21;17.75;;;8.73;;
52104;SDS011;38103;42.776;23.112;2024-03-06T02:23:47;21.00;;;9.25;;
52104;SDS011;38103;42.776;23.112;2024-03-06T02:26:12;20.20;;;8.23;;
52104;SDS011;38103;42.776;23.112;2024-03-06T02:28:38;25.30;;;10.35;;
52104;SDS011;38103;42.776;23.112;2024-03-06T02:31:03;29.17;;;12.10;;
52104;SDS011;38103;42.776;23.112;2024-03-06T02:33:31;32.85;;;12.05;;
52104;SDS011;38103;42.776;23.112;2024-03-06T02:35:59;19.75;;;9.93;;
52104;SDS011;38103;42.776;23.112;2024-03-06T02:38:24;20.13;;;8.85;;
52104;SDS011;38103;42.776;23.112;2024-03-06T02:40:50;17.45;;;7.93;;
52104;SDS011;38103;42.776;23.112;2024-03-06T02:43:15;13.90;;;8.00;;
52104;SDS011;38103;42.776;23.112;2024-03-06T02:45:40;16.67;;;8.60;;
52104;SDS011;38103;42.776;23.112;2024-03-06T02:48:06;17.50;;;7.68;;
52104;SDS011;38103;42.776;23.112;2024-03-06T02:50:32;19.58;;;8.50;;
52104;SDS011;38103;42.776;23.112;2024-03-06T02:52:57;22.33;;;8.82;;
52104;SDS011;38103;42.776;23.112;2024-03-06T02:55:23;18.23;;;7.32;;
52104;SDS011;38103;42.776;23.112;2024-03-06T02:57:49;16.17;;;6.60;;
52104;SDS011;38103;42.776;23.112;2024-03-06T03:00:15;17.58;;;7.45;;
52104;SDS011;38103;42.776;23.112;2024-03-06T03:02:41;14.45;;;8.48;;
52104;SDS011;38103;42.776;23.112;2024-03-06T03:05:07;18.90;;;8.30;;
52104;SDS011;38103;42.776;23.112;2024-03-06T03:07:33;19.95;;;9.73;;
52104;SDS011;38103;42.776;23.112;2024-03-06T03:09:58;17.92;;;9.18;;
52104;SDS011;38103;42.776;23.112;2024-03-06T03:12:23;22.25;;;8.77;;
52104;SDS011;38103;42.776;23.112;2024-03-06T03:14:49;21.17;;;9.80;;
52104;SDS011;38103;42.776;23.112;2024-03-06T03:17:14;18.20;;;7.50;;
52104;SDS011;38103;42.776;23.112;2024-03-06T03:19:40;21.40;;;8.07;;
52104;SDS011;38103;42.776;23.112;2024-03-06T03:22:06;25.20;;;9.70;;
52104;SDS011;38103;42.776;23.112;2024-03-06T03:24:33;23.42;;;8.98;;
52104;SDS011;38103;42.776;23.112;2024-03-06T03:26:58;22.27;;;9.93;;
52104;SDS011;38103;42.776;23.112;2024-03-06T03:29:24;24.17;;;8.75;;
52104;SDS011;38103;42.776;23.112;2024-03-06T03:31:50;22.48;;;10.25;;
52104;SDS011;38103;42.776;23.112;2024-03-06T03:34:15;15.63;;;8.45;;
52104;SDS011;38103;42.776;23.112;2024-03-06T03:36:41;21.73;;;9.70;;
52104;SDS011;38103;42.776;23.112;2024-03-06T03:41:42;21.80;;;8.80;;
52104;SDS011;38103;42.776;23.112;2024-03-06T03:44:08;23.15;;;9.05;;
52104;SDS011;38103;42.776;23.112;2024-03-06T03:46:33;19.55;;;9.25;;
52104;SDS011;38103;42.776;23.112;2024-03-06T03:48:59;19.90;;;9.35;;
52104;SDS011;38103;42.776;23.112;2024-03-06T03:51:24;18.15;;;7.82;;
52104;SDS011;38103;42.776;23.112;2024-03-06T03:53:49;21.00;;;7.45;;
52104;SDS011;38103;42.776;23.112;2024-03-06T03:56:17;15.27;;;7.57;;
52104;SDS011;38103;42.776;23.112;2024-03-06T03:58:43;13.13;;;6.80;;
52104;SDS011;38103;42.776;23.112;2024-03-06T04:01:10;19.88;;;8.73;;
52104;SDS011;38103;42.776;23.112;2024-03-06T04:03:36;18.85;;;7.85;;
52104;SDS011;38103;42.776;23.112;2024-03-06T04:06:01;14.48;;;6.85;;
52104;SDS011;38103;42.776;23.112;2024-03-06T04:08:27;16.08;;;7.65;;
52104;SDS011;38103;42.776;23.112;2024-03-06T04:10:52;22.60;;;9.23;;
52104;SDS011;38103;42.776;23.112;2024-03-06T04:13:18;16.55;;;7.95;;
52104;SDS011;38103;42.776;23.112;2024-03-06T04:15:45;19.10;;;8.68;;
52104;SDS011;38103;42.776;23.112;2024-03-06T04:18:11;26.52;;;9.45;;
52104;SDS011;38103;42.776;23.112;2024-03-06T04:20:36;16.98;;;8.00;;
52104;SDS011;38103;42.776;23.112;2024-03-06T04:23:01;17.60;;;8.13;;
52104;SDS011;38103;42.776;23.112;2024-03-06T04:25:27;15.88;;;7.22;;
52104;SDS011;38103;42.776;23.112;2024-03-06T04:27:53;23.52;;;9.52;;
52104;SDS011;38103;42.776;23.112;2024-03-06T04:30:18;23.15;;;8.00;;
52104;SDS011;38103;42.776;23.112;2024-03-06T04:32:44;19.67;;;7.53;;
52104;SDS011;38103;42.776;23.112;2024-03-06T04:35:09;20.58;;;7.68;;
52104;SDS011;38103;42.776;23.112;2024-03-06T04:37:35;18.02;;;9.20;;
52104;SDS011;38103;42.776;23.112;2024-03-06T04:40:00;17.95;;;8.05;;
52104;SDS011;38103;42.776;23.112;2024-03-06T04:42:27;14.02;;;7.78;;
52104;SDS011;38103;42.776;23.112;2024-03-06T04:44:53;17.67;;;8.02;;
52104;SDS011;38103;42.776;23.112;2024-03-06T04:47:18;19.90;;;7.82;;
52104;SDS011;38103;42.776;23.112;2024-03-06T04:49:44;13.23;;;7.28;;
52104;SDS011;38103;42.776;23.112;2024-03-06T04:52:09;21.20;;;9.50;;
52104;SDS011;38103;42.776;23.112;2024-03-06T04:54:35;25.88;;;11.32;;
52104;SDS011;38103;42.776;23.112;2024-03-06T04:57:00;24.70;;;9.60;;
52104;SDS011;38103;42.776;23.112;2024-03-06T04:59:25;22.15;;;10.02;;
52104;SDS011;38103;42.776;23.112;2024-03-06T05:01:51;25.45;;;10.13;;
52104;SDS011;38103;42.776;23.112;2024-03-06T05:04:17;20.90;;;8.95;;
52104;SDS011;38103;42.776;23.112;2024-03-06T05:06:42;28.27;;;10.35;;
52104;SDS011;38103;42.776;23.112;2024-03-06T05:09:08;23.20;;;10.57;;
52104;SDS011;38103;42.776;23.112;2024-03-06T05:11:37;24.33;;;10.40;;
52104;SDS011;38103;42.776;23.112;2024-03-06T05:14:03;33.10;;;12.02;;
52104;SDS011;38103;42.776;23.112;2024-03-06T05:16:29;30.65;;;12.60;;
52104;SDS011;38103;42.776;23.112;2024-03-06T05:18:55;23.63;;;12.25;;
52104;SDS011;38103;42.776;23.112;2024-03-06T05:21:21;22.67;;;10.63;;
52104;SDS011;38103;42.776;23.112;2024-03-06T05:23:47;20.25;;;9.05;;
52104;SDS011;38103;42.776;23.112;2024-03-06T05:26:13;19.40;;;9.40;;
52104;SDS011;38103;42.776;23.112;2024-03-06T05:28:39;19.92;;;9.68;;
52104;SDS011;38103;42.776;23.112;2024-03-06T05:31:17;23.75;;;10.50;;
52104;SDS011;38103;42.776;23.112;2024-03-06T05:33:44;23.30;;;9.05;;
52104;SDS011;38103;42.776;23.112;2024-03-06T05:36:10;21.50;;;10.48;;
52104;SDS011;38103;42.776;23.112;2024-03-06T05:38:36;19.65;;;9.25;;
52104;SDS011;38103;42.776;23.112;2024-03-06T05:41:01;16.10;;;7.68;;
52104;SDS011;38103;42.776;23.112;2024-03-06T05:43:27;16.85;;;8.77;;
52104;SDS011;38103;42.776;23.112;2024-03-06T05:45:52;18.95;;;9.80;;
52104;SDS011;38103;42.776;23.112;2024-03-06T05:48:18;20.08;;;9.82;;
52104;SDS011;38103;42.776;23.112;2024-03-06T05:50:43;22.05;;;10.88;;
52104;SDS011;38103;42.776;23.112;2024-03-06T05:53:09;21.95;;;8.57;;
52104;SDS011;38103;42.776;23.112;2024-03-06T05:55:36;20.52;;;9.48;;
52104;SDS011;38103;42.776;23.112;2024-03-06T05:58:02;17.60;;;7.35;;
52104;SDS011;38103;42.776;23.112;2024-03-06T06:00:27;15.43;;;8.57;;
52104;SDS011;38103;42.776;23.112;2024-03-06T06:02:52;30.83;;;13.23;;
52104;SDS011;38103;42.776;23.112;2024-03-06T06:05:18;28.63;;;13.15;;
52104;SDS011;38103;42.776;23.112;2024-03-06T06:07:47;50.05;;;17.20;;
52104;SDS011;38103;42.776;23.112;2024-03-06T06:10:13;24.27;;;10.77;;
52104;SDS011;38103;42.776;23.112;2024-03-06T06:12:39;26.08;;;12.18;;
52104;SDS011;38103;42.776;23.112;2024-03-06T06:15:04;20.88;;;8.75;;
52104;SDS011;38103;42.776;23.112;2024-03-06T06:17:32;20.20;;;10.55;;
52104;SDS011;38103;42.776;23.112;2024-03-06T06:19:57;23.02;;;10.48;;
52104;SDS011;38103;42.776;23.112;2024-03-06T06:22:23;18.73;;;9.25;;
52104;SDS011;38103;42.776;23.112;2024-03-06T06:24:48;21.83;;;9.90;;
52104;SDS011;38103;42.776;23.112;2024-03-06T06:27:14;15.88;;;8.20;;
52104;SDS011;38103;42.776;23.112;2024-03-06T06:29:40;12.90;;;7.25;;
52104;SDS011;38103;42.776;23.112;2024-03-06T06:32:06;16.20;;;7.40;;
52104;SDS011;38103;42.776;23.112;2024-03-06T06:34:32;25.42;;;12.52;;
52104;SDS011;38103;42.776;23.112;2024-03-06T06:36:57;22.67;;;10.45;;
52104;SDS011;38103;42.776;23.112;2024-03-06T06:39:23;13.55;;;7.97;;
52104;SDS011;38103;42.776;23.112;2024-03-06T06:41:48;16.58;;;8.63;;
52104;SDS011;38103;42.776;23.112;2024-03-06T06:44:13;11.63;;;7.95;;
52104;SDS011;38103;42.776;23.112;2024-03-06T06:46:39;11.88;;;6.32;;
52104;SDS011;38103;42.776;23.112;2024-03-06T06:49:05;15.48;;;6.75;;
52104;SDS011;38103;42.776;23.112;2024-03-06T06:51:30;13.32;;;6.82;;
52104;SDS011;38103;42.776;23.112;2024-03-06T06:53:55;21.70;;;8.15;;
52104;SDS011;38103;42.776;23.112;2024-03-06T06:56:21;36.47;;;18.60;;
52104;SDS011;38103;42.776;23.112;2024-03-06T06:58:49;21.15;;;11.23;;
52104;SDS011;38103;42.776;23.112;2024-03-06T07:01:14;14.65;;;7.25;;
52104;SDS011;38103;42.776;23.112;2024-03-06T07:03:41;17.80;;;9.00;;
52104;SDS011;38103;42.776;23.112;2024-03-06T07:06:07;21.40;;;9.18;;
52104;SDS011;38103;42.776;23.112;2024-03-06T07:08:32;17.75;;;8.85;;
52104;SDS011;38103;42.776;23.112;2024-03-06T07:10:58;19.70;;;10.77;;
52104;SDS011;38103;42.776;23.112;2024-03-06T07:13:23;17.55;;;8.68;;
52104;SDS011;38103;42.776;23.112;2024-03-06T07:15:48;13.20;;;7.55;;
52104;SDS011;38103;42.776;23.112;2024-03-06T07:18:14;14.32;;;8.20;;
52104;SDS011;38103;42.776;23.112;2024-03-06T07:20:40;18.45;;;9.43;;
52104;SDS011;38103;42.776;23.112;2024-03-06T07:23:06;18.80;;;8.98;;
52104;SDS011;38103;42.776;23.112;2024-03-06T07:25:31;17.98;;;9.13;;
52104;SDS011;38103;42.776;23.112;2024-03-06T07:27:56;15.13;;;8.38;;
52104;SDS011;38103;42.776;23.112;2024-03-06T07:30:22;16.02;;;8.48;;
52104;SDS011;38103;42.776;23.112;2024-03-06T07:32:48;15.65;;;7.80;;
52104;SDS011;38103;42.776;23.112;2024-03-06T07:35:13;14.52;;;7.82;;
52104;SDS011;38103;42.776;23.112;2024-03-06T07:37:39;15.30;;;8.15;;
52104;SDS011;38103;42.776;23.112;2024-03-06T07:40:05;14.73;;;7.65;;
52104;SDS011;38103;42.776;23.112;2024-03-06T07:42:32;17.35;;;9.48;;
52104;SDS011;38103;42.776;23.112;2024-03-06T07:47:23;23.02;;;11.00;;
52104;SDS011;38103;42.776;23.112;2024-03-06T07:49:49;22.63;;;11.13;;
52104;SDS011;38103;42.776;23.112;2024-03-06T07:52:15;20.05;;;10.00;;
52104;SDS011;38103;42.776;23.112;2024-03-06T07:54:41;29.65;;;15.52;;
52104;SDS011;38103;42.776;23.112;2024-03-06T07:57:06;19.70;;;12.88;;
52104;SDS011;38103;42.776;23.112;2024-03-06T07:59:32;14.98;;;7.68;;
52104;SDS011;38103;42.776;23.112;2024-03-06T08:01:57;20.67;;;11.77;;
52104;SDS011;38103;42.776;23.112;2024-03-06T08:04:22;12.45;;;8.10;;
52104;SDS011;38103;42.776;23.112;2024-03-06T08:06:48;17.75;;;9.43;;
52104;SDS011;38103;42.776;23.112;2024-03-06T08:09:14;16.73;;;7.78;;
52104;SDS011;38103;42.776;23.112;2024-03-06T08:11:41;16.95;;;7.80;;
52104;SDS011;38103;42.776;23.112;2024-03-06T08:14:07;15.32;;;7.50;;
52104;SDS011;38103;42.776;23.112;2024-03-06T08:16:33;13.45;;;7.30;;
52104;SDS011;38103;42.776;23.112;2024-03-06T08:18:59;14.18;;;7.93;;
52104;SDS011;38103;42.776;23.112;2024-03-06T08:21:25;14.15;;;7.50;;
52104;SDS011;38103;42.776;23.112;2024-03-06T08:23:50;14.48;;;7.25;;
52104;SDS011;38103;42.776;23.112;2024-03-06T08:26:16;16.40;;;8.82;;
52104;SDS011;38103;42.776;23.112;2024-03-06T08:28:41;17.38;;;8.55;;
52104;SDS011;38103;42.776;23.112;2024-03-06T08:31:07;16.02;;;8.85;;
52104;SDS011;38103;42.776;23.112;2024-03-06T08:33:33;17.88;;;9.02;;
52104;SDS011;38103;42.776;23.112;2024-03-06T08:35:59;18.58;;;8.10;;
52104;SDS011;38103;42.776;23.112;2024-03-06T08:38:24;15.18;;;8.05;;
52104;SDS011;38103;42.776;23.112;2024-03-06T08:40:50;16.08;;;8.63;;
52104;SDS011;38103;42.776;23.112;2024-03-06T08:43:16;14.43;;;8.68;;
52104;SDS011;38103;42.776;23.112;2024-03-06T08:45:41;14.45;;;7.90;;
52104;SDS011;38103;42.776;23.112;2024-03-06T08:48:07;15.05;;;8.13;;
52104;SDS011;38103;42.776;23.112;2024-03-06T08:52:59;11.57;;;6.43;;
52104;SDS011;38103;42.776;23.112;2024-03-06T08:55:24;20.15;;;7.65;;
52104;SDS011;38103;42.776;23.112;2024-03-06T08:57:49;12.80;;;7.47;;
52104;SDS011;38103;42.776;23.112;2024-03-06T09:00:15;15.65;;;8.05;;
52104;SDS011;38103;42.776;23.112;2024-03-06T09:02:42;15.25;;;7.90;;
52104;SDS011;38103;42.776;23.112;2024-03-06T09:05:08;14.00;;;7.55;;
52104;SDS011;38103;42.776;23.112;2024-03-06T09:07:38;11.85;;;6.95;;
52104;SDS011;38103;42.776;23.112;2024-03-06T09:10:09;9.93;;;6.97;;
52104;SDS011;38103;42.776;23.112;2024-03-06T09:12:38;13.82;;;7.13;;
52104;SDS011;38103;42.776;23.112;2024-03-06T09:15:03;12.52;;;6.65;;
52104;SDS011;38103;42.776;23.112;2024-03-06T09:17:29;13.00;;;7.45;;
52104;SDS011;38103;42.776;23.112;2024-03-06T09:19:55;12.35;;;7.15;;
52104;SDS011;38103;42.776;23.112;2024-03-06T09:22:21;14.15;;;6.85;;
52104;SDS011;38103;42.776;23.112;2024-03-06T09:24:46;15.73;;;7.80;;
52104;SDS011;38103;42.776;23.112;2024-03-06T09:27:13;14.35;;;7.20;;
52104;SDS011;38103;42.776;23.112;2024-03-06T09:29:39;12.77;;;7.05;;
52104;SDS011;38103;42.776;23.112;2024-03-06T09:32:05;12.02;;;6.72;;
52104;SDS011;38103;42.776;23.112;2024-03-06T09:34:30;14.10;;;7.47;;
52104;SDS011;38103;42.776;23.112;2024-03-06T09:36:55;15.15;;;8.07;;
52104;SDS011;38103;42.776;23.112;2024-03-06T09:39:21;9.75;;;6.80;;
52104;SDS011;38103;42.776;23.112;2024-03-06T09:41:48;11.80;;;6.93;;
52104;SDS011;38103;42.776;23.112;2024-03-06T09:44:17;18.33;;;7.68;;
52104;SDS011;38103;42.776;23.112;2024-03-06T09:49:12;11.90;;;5.80;;
52104;SDS011;38103;42.776;23.112;2024-03-06T09:51:43;10.07;;;6.57;;
52104;SDS011;38103;42.776;23.112;2024-03-06T09:54:13;14.32;;;6.72;;
52104;SDS011;38103;42.776;23.112;2024-03-06T09:56:40;12.05;;;6.53;;
52104;SDS011;38103;42.776;23.112;2024-03-06T09:59:07;16.75;;;6.78;;
52104;SDS011;38103;42.776;23.112;2024-03-06T10:01:33;14.02;;;6.50;;
52104;SDS011;38103;42.776;23.112;2024-03-06T10:04:21;11.90;;;6.35;;
52104;SDS011;38103;42.776;23.112;2024-03-06T10:06:47;13.25;;;6.75;;
52104;SDS011;38103;42.776;23.112;2024-03-06T10:09:16;11.35;;;6.07;;
52104;SDS011;38103;42.776;23.112;2024-03-06T10:11:42;17.60;;;6.55;;
52104;SDS011;38103;42.776;23.112;2024-03-06T10:14:07;10.40;;;6.68;;
52104;SDS011;38103;42.776;23.112;2024-03-06T10:16:35;13.10;;;6.50;;
52104;SDS011;38103;42.776;23.112;2024-03-06T10:19:16;11.32;;;6.43;;
52104;SDS011;38103;42.776;23.112;2024-03-06T10:21:43;13.32;;;5.72;;
52104;SDS011;38103;42.776;23.112;2024-03-06T10:24:11;12.25;;;5.35;;
52104;SDS011;38103;42.776;23.112;2024-03-06T10:26:37;11.00;;;5.75;;
52104;SDS011;38103;42.776;23.112;2024-03-06T10:29:03;12.48;;;5.60;;
52104;SDS011;38103;42.776;23.112;2024-03-06T10:31:28;8.93;;;5.72;;
52104;SDS011;38103;42.776;23.112;2024-03-06T10:33:53;8.82;;;5.18;;
52104;SDS011;38103;42.776;23.112;2024-03-06T10:36:19;8.77;;;5.88;;
52104;SDS011;38103;42.776;23.112;2024-03-06T10:38:44;10.85;;;5.53;;
52104;SDS011;38103;42.776;23.112;2024-03-06T10:41:14;9.00;;;5.00;;
52104;SDS011;38103;42.776;23.112;2024-03-06T10:43:40;12.65;;;6.40;;
52104;SDS011;38103;42.776;23.112;2024-03-06T10:46:08;8.13;;;5.15;;
52104;SDS011;38103;42.776;23.112;2024-03-06T10:48:36;8.15;;;5.30;;
52104;SDS011;38103;42.776;23.112;2024-03-06T10:51:02;11.93;;;4.47;;
52104;SDS011;38103;42.776;23.112;2024-03-06T10:53:30;7.20;;;5.03;;
52104;SDS011;38103;42.776;23.112;2024-03-06T10:55:57;10.52;;;5.40;;
52104;SDS011;38103;42.776;23.112;2024-03-06T10:58:23;9.65;;;4.53;;
52104;SDS011;38103;42.776;23.112;2024-03-06T11:00:50;7.45;;;4.47;;
52104;SDS011;38103;42.776;23.112;2024-03-06T11:03:16;7.70;;;4.55;;
52104;SDS011;38103;42.776;23.112;2024-03-06T11:05:42;9.10;;;5.88;;
52104;SDS011;38103;42.776;23.112;2024-03-06T11:08:11;10.45;;;5.00;;
52104;SDS011;38103;42.776;23.112;2024-03-06T11:10:38;7.38;;;4.90;;
52104;SDS011;38103;42.776;23.112;2024-03-06T11:13:23;6.20;;;4.00;;
52104;SDS011;38103;42.776;23.112;2024-03-06T11:15:53;6.07;;;4.30;;
52104;SDS011;38103;42.776;23.112;2024-03-06T11:23:28;7.90;;;4.38;;
52104;SDS011;38103;42.776;23.112;2024-03-06T11:28:20;8.57;;;5.35;;
52104;SDS011;38103;42.776;23.112;2024-03-06T11:30:47;9.27;;;5.03;;
52104;SDS011;38103;42.776;23.112;2024-03-06T11:33:19;8.60;;;5.07;;
52104;SDS011;38103;42.776;23.112;2024-03-06T11:38:46;5.97;;;3.88;;
52104;SDS011;38103;42.776;23.112;2024-03-06T11:41:28;6.85;;;4.72;;
52104;SDS011;38103;42.776;23.112;2024-03-06T11:43:56;5.88;;;4.32;;
52104;SDS011;38103;42.776;23.112;2024-03-06T11:46:22;6.05;;;4.18;;
52104;SDS011;38103;42.776;23.112;2024-03-06T11:49:04;7.63;;;5.18;;
52104;SDS011;38103;42.776;23.112;2024-03-06T11:52:02;8.43;;;4.72;;
52104;SDS011;38103;42.776;23.112;2024-03-06T11:54:30;7.85;;;4.50;;
52104;SDS011;38103;42.776;23.112;2024-03-06T11:57:00;7.57;;;4.47;;
52104;SDS011;38103;42.776;23.112;2024-03-06T11:59:34;7.68;;;4.22;;
52104;SDS011;38103;42.776;23.112;2024-03-06T12:02:04;5.38;;;4.32;;
52104;SDS011;38103;42.776;23.112;2024-03-06T12:04:30;7.30;;;4.25;;
52104;SDS011;38103;42.776;23.112;2024-03-06T12:06:57;8.80;;;4.25;;
52104;SDS011;38103;42.776;23.112;2024-03-06T12:09:30;7.45;;;4.10;;
52104;SDS011;38103;42.776;23.112;2024-03-06T12:11:57;7.85;;;4.80;;
52104;SDS011;38103;42.776;23.112;2024-03-06T12:14:22;6.93;;;4.97;;
52104;SDS011;38103;42.776;23.112;2024-03-06T12:16:58;11.85;;;5.13;;
52104;SDS011;38103;42.776;23.112;2024-03-06T12:19:27;12.35;;;4.57;;
52104;SDS011;38103;42.776;23.112;2024-03-06T12:21:54;8.77;;;4.75;;
52104;SDS011;38103;42.776;23.112;2024-03-06T12:24:20;5.88;;;4.30;;
52104;SDS011;38103;42.776;23.112;2024-03-06T12:26:46;9.20;;;4.63;;
52104;SDS011;38103;42.776;23.112;2024-03-06T12:29:16;6.78;;;4.78;;
52104;SDS011;38103;42.776;23.112;2024-03-06T12:31:46;7.25;;;4.53;;
52104;SDS011;38103;42.776;23.112;2024-03-06T12:34:14;14.18;;;5.07;;
52104;SDS011;38103;42.776;23.112;2024-03-06T12:36:42;7.32;;;4.22;;
52104;SDS011;38103;42.776;23.112;2024-03-06T12:39:08;9.43;;;5.03;;
52104;SDS011;38103;42.776;23.112;2024-03-06T12:41:38;12.18;;;5.05;;
52104;SDS011;38103;42.776;23.112;2024-03-06T12:44:04;6.10;;;4.50;;
52104;SDS011;38103;42.776;23.112;2024-03-06T12:46:31;8.85;;;4.18;;
52104;SDS011;38103;42.776;23.112;2024-03-06T12:48:57;19.73;;;7.03;;
52104;SDS011;38103;42.776;23.112;2024-03-06T12:51:23;6.60;;;3.83;;
52104;SDS011;38103;42.776;23.112;2024-03-06T12:53:48;5.97;;;4.00;;
52104;SDS011;38103;42.776;23.112;2024-03-06T12:56:13;4.95;;;3.67;;
52104;SDS011;38103;42.776;23.112;2024-03-06T12:58:39;7.60;;;4.55;;
52104;SDS011;38103;42.776;23.112;2024-03-06T13:01:04;7.70;;;4.38;;
52104;SDS011;38103;42.776;23.112;2024-03-06T13:03:30;6.50;;;3.92;;
52104;SDS011;38103;42.776;23.112;2024-03-06T13:05:56;7.38;;;4.65;;
52104;SDS011;38103;42.776;23.112;2024-03-06T13:08:21;9.27;;;4.90;;
52104;SDS011;38103;42.776;23.112;2024-03-06T13:10:47;6.47;;;4.53;;
52104;SDS011;38103;42.776;23.112;2024-03-06T13:13:12;12.50;;;5.85;;
52104;SDS011;38103;42.776;23.112;2024-03-06T13:15:38;11.32;;;5.00;;
52104;SDS011;38103;42.776;23.112;2024-03-06T13:18:03;10.52;;;5.68;;
52104;SDS011;38103;42.776;23.112;2024-03-06T13:20:33;8.75;;;4.85;;
52104;SDS011;38103;42.776;23.112;2024-03-06T13:22:58;9.35;;;4.88;;
52104;SDS011;38103;42.776;23.112;2024-03-06T13:25:25;9.05;;;5.72;;
52104;SDS011;38103;42.776;23.112;2024-03-06T13:30:19;9.85;;;5.53;;
52104;SDS011;38103;42.776;23.112;2024-03-06T13:32:45;9.48;;;4.18;;
52104;SDS011;38103;42.776;23.112;2024-03-06T13:35:13;8.68;;;4.45;;
52104;SDS011;38103;42.776;23.112;2024-03-06T13:37:41;5.95;;;4.20;;
52104;SDS011;38103;42.776;23.112;2024-03-06T13:43:22;7.00;;;5.28;;
52104;SDS011;38103;42.776;23.112;2024-03-06T13:45:51;9.77;;;4.13;;
52104;SDS011;38103;42.776;23.112;2024-03-06T13:48:17;6.30;;;4.78;;
52104;SDS011;38103;42.776;23.112;2024-03-06T13:50:44;8.35;;;5.90;;
52104;SDS011;38103;42.776;23.112;2024-03-06T13:53:10;9.68;;;5.55;;
52104;SDS011;38103;42.776;23.112;2024-03-06T13:58:01;6.95;;;4.55;;
52104;SDS011;38103;42.776;23.112;2024-03-06T14:00:27;6.38;;;3.88;;
52104;SDS011;38103;42.776;23.112;2024-03-06T14:02:53;4.55;;;3.85;;
52104;SDS011;38103;42.776;23.112;2024-03-06T14:05:18;6.97;;;4.15;;
52104;SDS011;38103;42.776;23.112;2024-03-06T14:07:49;8.20;;;4.70;;
52104;SDS011;38103;42.776;23.112;2024-03-06T14:10:15;6.60;;;4.20;;
52104;SDS011;38103;42.776;23.112;2024-03-06T14:12:44;5.30;;;4.80;;
52104;SDS011;38103;42.776;23.112;2024-03-06T14:15:09;7.80;;;5.18;;
52104;SDS011;38103;42.776;23.112;2024-03-06T14:17:38;8.52;;;4.60;;
52104;SDS011;38103;42.776;23.112;2024-03-06T14:20:04;8.88;;;4.63;;
52104;SDS011;38103;42.776;23.112;2024-03-06T14:22:30;9.48;;;4.85;;
52104;SDS011;38103;42.776;23.112;2024-03-06T14:24:55;5.47;;;4.63;;
52104;SDS011;38103;42.776;23.112;2024-03-06T14:27:21;10.82;;;4.78;;
52104;SDS011;38103;42.776;23.112;2024-03-06T14:29:46;9.25;;;5.32;;
52104;SDS011;38103;42.776;23.112;2024-03-06T14:32:12;11.65;;;6.25;;
52104;SDS011;38103;42.776;23.112;2024-03-06T14:34:37;10.13;;;5.47;;
52104;SDS011;38103;42.776;23.112;2024-03-06T14:37:03;7.80;;;4.40;;
52104;SDS011;38103;42.776;23.112;2024-03-06T14:39:28;5.30;;;4.15;;
52104;SDS011;38103;42.776;23.112;2024-03-06T14:41:54;8.82;;;4.90;;
52104;SDS011;38103;42.776;23.112;2024-03-06T14:44:20;7.93;;;4.20;;
52104;SDS011;38103;42.776;23.112;2024-03-06T14:46:46;9.57;;;5.72;;
52104;SDS011;38103;42.776;23.112;2024-03-06T14:49:12;9.27;;;4.78;;